Time;durP1;ratioP1;P1;durP2;ratioP2;P2;SDS_P1;SDS_P2;PMS_P1;PMS_P2;Temp;Humidity;BMP_temperature;BMP_pressure;BME280_temperature;BME280_humidity;BME280_pressure;Samples;Min_cycle;Max_cycle;Signal;HPM_P1;HPM_P2
2023/08/30 00:00:05;;;;;;;9.60;8.68;;;20.80;77.70;;;;;;4191489;28;20173;-44
2023/08/30 00:02:47;;;;;;;12.32;8.60;;;20.80;77.60;;;;;;4198880;28;20184;-44
2023/08/30 00:05:32;;;;;;;9.40;8.50;;;20.80;77.70;;;;;;4201475;28;20047;-44
2023/08/30 00:08:18;;;;;;;8.93;8.07;;;20.80;77.70;;;;;;4183940;28;20419;-54
2023/08/30 00:11:04;;;;;;;9.40;8.52;;;20.80;77.70;;;;;;4173523;28;20538;-43
2023/08/30 00:13:50;;;;;;;9.60;8.70;;;20.80;77.80;;;;;;4161384;28;20070;-44
2023/08/30 00:16:32;;;;;;;9.85;9.05;;;20.80;77.70;;;;;;4180581;28;20067;-43
2023/08/30 00:19:15;;;;;;;10.38;9.38;;;20.80;77.70;;;;;;4173502;28;20117;-44
2023/08/30 00:21:57;;;;;;;9.80;9.00;;;20.70;77.70;;;;;;4177369;28;20431;-54
2023/08/30 00:24:38;;;;;;;9.73;8.75;;;20.80;77.90;;;;;;4156472;28;20058;-52
2023/08/30 00:27:20;;;;;;;9.18;8.48;;;20.70;77.80;;;;;;4181614;28;20054;-56
2023/08/30 00:30:10;;;;;;;9.77;8.88;;;20.80;77.90;;;;;;4175967;28;20044;-55
2023/08/30 00:32:54;;;;;;;10.13;9.23;;;20.80;77.90;;;;;;4183716;28;20052;-55
2023/08/30 00:35:38;;;;;;;9.93;8.90;;;20.80;77.90;;;;;;4179413;28;20067;-55
2023/08/30 00:38:23;;;;;;;9.98;9.07;;;20.70;77.70;;;;;;4157483;28;20606;-55
2023/08/30 00:41:07;;;;;;;9.70;8.93;;;20.70;77.80;;;;;;4165791;28;20427;-54
2023/08/30 00:43:50;;;;;;;9.27;8.52;;;20.70;77.90;;;;;;4167185;28;20123;-44
2023/08/30 00:46:34;;;;;;;10.85;9.75;;;20.70;77.90;;;;;;4189092;28;20118;-44
2023/08/30 00:49:18;;;;;;;10.25;9.23;;;20.70;77.90;;;;;;4160486;28;20065;-44
2023/08/30 00:52:01;;;;;;;10.23;9.32;;;20.70;77.90;;;;;;4160419;28;20125;-44
2023/08/30 00:54:44;;;;;;;9.88;9.00;;;20.70;77.90;;;;;;4182192;28;20059;-43
2023/08/30 00:57:30;;;;;;;9.52;8.73;;;20.70;77.90;;;;;;4187580;28;20510;-44
2023/08/30 01:00:14;;;;;;;9.50;8.60;;;20.70;77.90;;;;;;4182151;28;20056;-43
2023/08/30 01:02:57;;;;;;;10.13;9.13;;;20.70;77.90;;;;;;4182304;28;20060;-43
2023/08/30 01:05:42;;;;;;;9.88;9.07;;;20.60;77.80;;;;;;4176656;28;20051;-43
2023/08/30 01:08:25;;;;;;;9.65;8.75;;;20.60;77.90;;;;;;4163958;28;20633;-56
2023/08/30 01:11:18;;;;;;;10.60;9.68;;;20.60;77.90;;;;;;4176284;28;20117;-55
2023/08/30 01:14:10;;;;;;;10.93;10.00;;;20.60;77.80;;;;;;4171426;28;20181;-56
2023/08/30 01:16:52;;;;;;;10.88;9.80;;;20.60;77.90;;;;;;4176209;28;20482;-45
2023/08/30 01:19:47;;;;;;;10.32;9.43;;;20.60;78.00;;;;;;4185312;28;20063;-44
2023/08/30 01:22:44;;;;;;;10.48;9.45;;;20.60;77.70;;;;;;4182046;28;20055;-44
2023/08/30 01:25:39;;;;;;;10.32;9.50;;;20.60;77.70;;;;;;4164049;28;20063;-44
2023/08/30 01:28:26;;;;;;;10.45;9.27;;;20.60;77.90;;;;;;4165627;28;20583;-55
2023/08/30 01:31:10;;;;;;;10.18;9.27;;;20.60;78.00;;;;;;4167121;28;20808;-56
2023/08/30 01:34:02;;;;;;;10.88;9.80;;;20.50;78.00;;;;;;4165998;28;20052;-55
2023/08/30 01:36:48;;;;;;;11.63;10.43;;;20.50;77.70;;;;;;4163276;28;20648;-47
2023/08/30 01:39:31;;;;;;;10.93;9.90;;;20.50;77.90;;;;;;4172398;28;20170;-56
2023/08/30 01:42:14;;;;;;;11.38;10.07;;;20.50;77.80;;;;;;4160517;28;20063;-56
2023/08/30 01:45:08;;;;;;;9.95;8.95;;;20.50;77.80;;;;;;4156298;28;20422;-45
2023/08/30 01:47:55;;;;;;;10.30;9.27;;;20.50;77.70;;;;;;4175861;28;20399;-45
2023/08/30 01:50:38;;;;;;;10.43;9.52;;;20.50;78.00;;;;;;4178058;28;20063;-44
2023/08/30 01:53:21;;;;;;;9.77;8.80;;;20.50;77.80;;;;;;4175429;28;20056;-43
2023/08/30 01:56:03;;;;;;;9.45;8.48;;;20.50;77.80;;;;;;4160579;28;20531;-56
2023/08/30 01:58:45;;;;;;;10.45;9.45;;;20.40;77.70;;;;;;4140155;28;20072;-54
2023/08/30 02:01:28;;;;;;;10.10;9.07;;;20.40;77.60;;;;;;4164933;28;20060;-54
2023/08/30 02:04:13;;;;;;;10.07;9.07;;;20.40;77.50;;;;;;4165623;28;20047;-56
2023/08/30 02:06:59;;;;;;;10.88;9.20;;;20.40;77.60;;;;;;4183706;28;20835;-56
2023/08/30 02:09:48;;;;;;;10.75;9.75;;;20.40;77.50;;;;;;4191953;28;20055;-56
2023/08/30 02:12:38;;;;;;;10.80;9.88;;;20.40;77.60;;;;;;4181603;28;20079;-56
2023/08/30 02:15:21;;;;;;;11.02;9.95;;;20.40;77.60;;;;;;4158894;28;20052;-55
2023/08/30 02:18:07;;;;;;;9.85;8.90;;;20.40;77.60;;;;;;4180134;28;20071;-55
2023/08/30 02:20:49;;;;;;;10.68;9.70;;;20.30;77.30;;;;;;4181041;28;20514;-56
2023/08/30 02:23:31;;;;;;;10.57;9.57;;;20.40;77.50;;;;;;4181865;28;20052;-55
2023/08/30 02:26:12;;;;;;;11.15;10.15;;;20.30;77.30;;;;;;4180550;28;20407;-57
2023/08/30 02:28:54;;;;;;;10.38;9.32;;;20.30;77.30;;;;;;4182467;28;20047;-55
2023/08/30 02:31:39;;;;;;;10.95;9.98;;;20.30;77.30;;;;;;4156957;28;20419;-55
2023/08/30 02:34:22;;;;;;;11.45;10.43;;;20.30;78.10;;;;;;4157551;28;20174;-56
2023/08/30 02:37:05;;;;;;;10.95;9.85;;;20.30;77.20;;;;;;4125345;28;20059;-44
2023/08/30 02:39:49;;;;;;;10.50;9.60;;;20.30;77.30;;;;;;4166621;28;20168;-54
2023/08/30 02:42:34;;;;;;;10.18;9.27;;;20.30;77.30;;;;;;4170581;28;20056;-53
2023/08/30 02:45:15;;;;;;;11.07;10.00;;;20.30;77.20;;;;;;4174937;28;20511;-56
2023/08/30 02:47:58;;;;;;;9.80;8.93;;;20.20;77.20;;;;;;4171366;28;20514;-53
2023/08/30 02:50:41;;;;;;;10.52;9.23;;;20.20;77.20;;;;;;4186519;28;20059;-55
2023/08/30 02:53:24;;;;;;;9.90;8.90;;;20.20;77.20;;;;;;4180549;28;20055;-52
2023/08/30 02:56:06;;;;;;;10.73;9.75;;;20.20;77.10;;;;;;4163589;28;20055;-57
2023/08/30 02:58:48;;;;;;;;;;;20.20;77.00;;;;;;4171409;28;20063;-56
2023/08/30 03:01:30;;;;;;;11.73;10.23;;;20.20;77.30;;;;;;4168297;28;19930;-55
2023/08/30 03:04:12;;;;;;;10.13;9.13;;;20.20;77.80;;;;;;4181013;28;20067;-54
2023/08/30 03:06:56;;;;;;;10.20;9.30;;;20.20;77.40;;;;;;4175079;28;20080;-54
2023/08/30 03:09:44;;;;;;;10.43;9.40;;;20.20;77.10;;;;;;4186546;28;20047;-52
2023/08/30 03:12:25;;;;;;;10.57;9.68;;;20.20;77.10;;;;;;4179381;28;20051;-55
2023/08/30 03:15:08;;;;;;;10.15;9.25;;;20.20;77.00;;;;;;4182020;28;20052;-55
2023/08/30 03:17:50;;;;;;;9.98;9.18;;;20.20;77.10;;;;;;4169991;28;20078;-54
2023/08/30 03:20:35;;;;;;;10.82;8.77;;;20.10;76.80;;;;;;4170491;28;20046;-55
2023/08/30 03:23:20;;;;;;;10.30;8.63;;;20.10;76.80;;;;;;4180318;28;20055;-55
2023/08/30 03:26:09;;;;;;;9.50;8.50;;;20.10;76.80;;;;;;4175469;28;20059;-55
2023/08/30 03:28:51;;;;;;;9.93;9.00;;;20.10;76.50;;;;;;4170341;28;20075;-53
2023/08/30 03:31:34;;;;;;;11.48;8.93;;;20.10;76.80;;;;;;4178980;28;20064;-54
2023/08/30 03:34:16;;;;;;;9.85;8.85;;;20.10;76.70;;;;;;4170925;28;20110;-56
2023/08/30 03:36:59;;;;;;;11.07;9.70;;;20.10;76.70;;;;;;4191717;28;20056;-56
2023/08/30 03:39:43;;;;;;;;;;;20.10;76.70;;;;;;4184938;28;20052;-52
2023/08/30 03:42:27;;;;;;;10.45;9.45;;;20.10;77.00;;;;;;4182148;28;20660;-54
2023/08/30 03:45:10;;;;;;;9.80;8.80;;;20.00;77.90;;;;;;4146113;28;20051;-56
2023/08/30 03:47:53;;;;;;;9.13;8.23;;;20.10;77.80;;;;;;4182374;28;20054;-55
2023/08/30 03:50:36;;;;;;;9.45;8.55;;;20.00;77.60;;;;;;4182330;28;20052;-55
2023/08/30 03:53:18;;;;;;;9.68;8.70;;;20.00;77.60;;;;;;4185561;28;20056;-51
2023/08/30 03:56:03;;;;;;;9.90;8.90;;;20.00;77.50;;;;;;4171912;28;20679;-54
2023/08/30 03:58:46;;;;;;;9.73;8.75;;;20.00;77.10;;;;;;4182090;28;20848;-55
2023/08/30 04:01:29;;;;;;;8.68;7.97;;;20.00;76.90;;;;;;4163005;28;20055;-55
2023/08/30 04:04:13;;;;;;;9.40;8.52;;;20.00;76.70;;;;;;4170846;28;20518;-53
2023/08/30 04:06:58;;;;;;;9.70;8.70;;;20.00;76.50;;;;;;4139824;28;20070;-53
2023/08/30 04:09:41;;;;;;;9.38;8.35;;;20.00;76.60;;;;;;4173835;28;20411;-52
2023/08/30 04:12:24;;;;;;;9.63;8.27;;;19.90;76.30;;;;;;4180612;28;20411;-54
2023/08/30 04:15:07;;;;;;;8.75;7.95;;;20.00;76.20;;;;;;4175680;28;20606;-55
2023/08/30 04:17:49;;;;;;;10.45;7.65;;;19.90;76.20;;;;;;4142862;28;20046;-55
2023/08/30 04:20:32;;;;;;;9.52;8.52;;;19.90;76.30;;;;;;4172708;28;20097;-54
2023/08/30 04:23:17;;;;;;;7.95;7.28;;;19.90;76.20;;;;;;4164995;28;20427;-55
2023/08/30 04:26:00;;;;;;;9.68;7.63;;;19.90;76.20;;;;;;4167852;28;20400;-53
2023/08/30 04:28:44;;;;;;;8.88;7.85;;;19.90;76.00;;;;;;4180591;28;20055;-53
2023/08/30 04:31:29;;;;;;;8.75;7.95;;;19.90;75.90;;;;;;4167562;28;20442;-55
2023/08/30 04:34:12;;;;;;;9.05;8.13;;;19.90;76.00;;;;;;4178984;28;20059;-56
2023/08/30 04:36:54;;;;;;;9.10;7.82;;;19.80;75.90;;;;;;4177315;28;20044;-43
2023/08/30 04:39:38;;;;;;;9.38;8.20;;;19.80;75.90;;;;;;4164211;28;20047;-44
2023/08/30 04:42:20;;;;;;;9.18;8.38;;;19.80;76.20;;;;;;4168180;28;20416;-43
2023/08/30 04:45:13;;;;;;;9.52;8.55;;;19.80;76.20;;;;;;4158597;28;20481;-43
2023/08/30 04:47:56;;;;;;;9.93;8.70;;;19.80;75.90;;;;;;4159312;28;20545;-52
2023/08/30 04:50:43;;;;;;;11.10;8.82;;;19.80;76.10;;;;;;4174983;28;20052;-54
2023/08/30 04:53:25;;;;;;;9.50;8.65;;;19.80;76.00;;;;;;4187094;28;20117;-55
2023/08/30 04:56:14;;;;;;;9.38;8.43;;;19.80;76.00;;;;;;4161947;28;20503;-56
2023/08/30 04:58:57;;;;;;;10.40;8.65;;;19.80;75.60;;;;;;4144016;28;20061;-52
2023/08/30 05:01:43;;;;;;;9.20;8.38;;;19.80;75.90;;;;;;4164235;28;20097;-55
2023/08/30 05:04:27;;;;;;;8.95;8.00;;;19.80;75.90;;;;;;4164362;28;20050;-55
2023/08/30 05:07:12;;;;;;;8.75;7.85;;;19.80;76.00;;;;;;4148654;28;20151;-55
2023/08/30 05:10:06;;;;;;;9.38;8.15;;;19.80;75.90;;;;;;4182127;28;20059;-55
2023/08/30 05:12:51;;;;;;;9.35;8.45;;;19.70;75.90;;;;;;4149235;28;20118;-51
2023/08/30 05:15:36;;;;;;;9.05;8.15;;;19.70;76.20;;;;;;4165630;28;20117;-52
2023/08/30 05:18:23;;;;;;;8.90;8.10;;;19.80;76.20;;;;;;4178093;28;20064;-50
2023/08/30 05:21:12;;;;;;;8.88;7.95;;;19.80;76.00;;;;;;4136736;28;20159;-54
2023/08/30 05:23:54;;;;;;;9.25;8.30;;;19.80;76.20;;;;;;4147470;28;20051;-55
2023/08/30 05:26:41;;;;;;;9.57;8.57;;;19.80;76.10;;;;;;4117003;28;20530;-55
2023/08/30 05:29:27;;;;;;;9.75;8.57;;;19.80;75.90;;;;;;4141741;28;20055;-54
2023/08/30 05:32:15;;;;;;;9.20;8.30;;;19.80;76.00;;;;;;4141077;28;20060;-55
2023/08/30 05:35:22;;;;;;;9.27;8.48;;;19.80;76.00;;;;;;4148487;28;20052;-52
2023/08/30 05:38:44;;;;;;;8.48;7.65;;;19.80;76.20;;;;;;4151203;28;20078;-55
2023/08/30 05:41:37;;;;;;;8.80;7.90;;;19.70;76.30;;;;;;4165387;28;20180;-55
2023/08/30 05:44:26;;;;;;;9.15;8.00;;;19.70;76.20;;;;;;4165793;28;20051;-52
2023/08/30 05:47:15;;;;;;;8.70;7.90;;;19.70;76.20;;;;;;4146426;28;20055;-53
2023/08/30 05:50:01;;;;;;;8.48;7.68;;;19.70;76.50;;;;;;4161167;28;20060;-54
2023/08/30 05:52:48;;;;;;;8.80;8.00;;;19.70;76.30;;;;;;4163040;28;20056;-55
2023/08/30 05:55:38;;;;;;;9.43;8.50;;;19.70;76.20;;;;;;4160317;28;20412;-53
2023/08/30 05:58:22;;;;;;;9.70;8.13;;;19.70;76.60;;;;;;4114101;28;20064;-51
2023/08/30 06:01:06;;;;;;;8.35;7.65;;;19.70;77.50;;;;;;4174256;28;20412;-55
2023/08/30 06:03:57;;;;;;;8.73;7.97;;;19.70;79.30;;;;;;4167483;28;20094;-54
2023/08/30 06:06:39;;;;;;;10.27;7.50;;;19.70;80.00;;;;;;4141234;28;20468;-55
2023/08/30 06:09:27;;;;;;;9.05;8.13;;;19.60;80.40;;;;;;4143571;28;20055;-51
2023/08/30 06:12:12;;;;;;;9.80;7.90;;;19.70;80.20;;;;;;4151832;28;20622;-54
2023/08/30 06:14:57;;;;;;;8.93;7.93;;;19.60;79.80;;;;;;4133444;28;20051;-54
2023/08/30 06:17:39;;;;;;;8.57;7.68;;;19.60;79.30;;;;;;4097603;28;20060;-55
2023/08/30 06:20:31;;;;;;;8.88;7.95;;;19.60;79.00;;;;;;4163874;28;20668;-54
2023/08/30 06:23:21;;;;;;;8.82;7.90;;;19.60;78.90;;;;;;4175522;28;20055;-53
2023/08/30 06:26:05;;;;;;;8.63;7.82;;;19.60;78.80;;;;;;4170609;28;20221;-53
2023/08/30 06:28:53;;;;;;;9.05;8.00;;;19.60;78.80;;;;;;4162578;28;20564;-54
2023/08/30 06:31:48;;;;;;;9.40;8.07;;;19.60;78.60;;;;;;4159717;28;20075;-55
2023/08/30 06:34:33;;;;;;;9.52;8.52;;;19.60;78.60;;;;;;4158915;28;20075;-53
2023/08/30 06:37:15;;;;;;;9.95;7.78;;;19.60;78.60;;;;;;4171194;28;20094;-52
2023/08/30 06:40:01;;;;;;;9.02;8.13;;;19.60;78.70;;;;;;4166807;28;20511;-52
2023/08/30 06:42:48;;;;;;;9.65;8.10;;;19.60;78.50;;;;;;4176149;28;20430;-45
2023/08/30 06:45:33;;;;;;;9.30;7.90;;;19.50;78.50;;;;;;4158787;28;20051;-47
2023/08/30 06:48:15;;;;;;;11.32;8.38;;;19.60;78.60;;;;;;4124448;28;20162;-56
2023/08/30 06:51:06;;;;;;;9.53;8.50;;;19.60;78.60;;;;;;4158707;28;20139;-56
2023/08/30 06:53:50;;;;;;;9.30;8.40;;;19.50;78.40;;;;;;4128677;28;20076;-56
2023/08/30 06:56:35;;;;;;;9.13;7.38;;;19.60;78.40;;;;;;4138865;28;20404;-45
2023/08/30 06:59:23;;;;;;;11.10;8.52;;;19.50;78.30;;;;;;4133605;28;20059;-47
2023/08/30 07:02:17;;;;;;;9.05;8.13;;;19.60;78.10;;;;;;4158819;28;20051;-49
2023/08/30 07:05:07;;;;;;;10.65;8.00;;;19.60;77.80;;;;;;4125645;28;20051;-55
2023/08/30 07:07:53;;;;;;;8.85;7.82;;;19.70;77.80;;;;;;4146894;28;20104;-53
2023/08/30 07:10:38;;;;;;;8.90;7.88;;;19.70;77.40;;;;;;4152095;28;20051;-44
2023/08/30 07:13:24;;;;;;;8.80;7.55;;;19.70;77.10;;;;;;4150658;28;20059;-47
2023/08/30 07:16:20;;;;;;;8.43;7.18;;;19.70;76.80;;;;;;4167700;28;20059;-50
2023/08/30 07:19:09;;;;;;;8.73;7.55;;;19.70;76.70;;;;;;4158758;28;20056;-52
2023/08/30 07:21:53;;;;;;;10.30;7.30;;;19.70;76.50;;;;;;4120366;28;20546;-52
2023/08/30 07:24:36;;;;;;;9.98;7.55;;;19.70;76.20;;;;;;4134332;28;20056;-44
2023/08/30 07:27:23;;;;;;;10.02;7.40;;;19.80;76.00;;;;;;4136078;28;20178;-45
2023/08/30 07:30:08;;;;;;;11.50;7.75;;;19.80;75.90;;;;;;4128067;28;20079;-46
2023/08/30 07:32:51;;;;;;;10.73;7.20;;;19.80;76.10;;;;;;4133707;28;20431;-45
2023/08/30 07:35:34;;;;;;;9.65;7.03;;;19.80;76.20;;;;;;4162397;28;20285;-45
2023/08/30 07:38:16;;;;;;;10.00;7.43;;;19.80;76.20;;;;;;4146779;28;20550;-45
2023/08/30 07:41:03;;;;;;;8.95;7.32;;;19.80;75.90;;;;;;4131822;28;20060;-45
2023/08/30 07:43:49;;;;;;;7.85;7.15;;;19.80;75.50;;;;;;4146328;28;20075;-46
2023/08/30 07:46:37;;;;;;;10.57;7.63;;;19.80;75.20;;;;;;4146404;28;20194;-45
2023/08/30 07:49:33;;;;;;;10.75;8.05;;;19.80;75.10;;;;;;4150105;28;20457;-47
2023/08/30 07:52:17;;;;;;;9.25;7.78;;;19.70;75.10;;;;;;4165657;28;20051;-46
2023/08/30 07:55:09;;;;;;;15.20;7.88;;;19.70;75.00;;;;;;4164970;28;20079;-46
2023/08/30 07:57:55;;;;;;;10.63;8.38;;;19.70;75.00;;;;;;4157183;28;20113;-48
2023/08/30 08:00:38;;;;;;;9.68;8.30;;;19.70;75.10;;;;;;4165176;28;20519;-46
2023/08/30 08:03:25;;;;;;;10.90;8.10;;;19.70;75.10;;;;;;4160457;28;20179;-44
2023/08/30 08:06:09;;;;;;;10.55;9.45;;;19.70;75.00;;;;;;4156339;28;20052;-45
2023/08/30 08:08:53;;;;;;;10.05;8.50;;;19.70;75.00;;;;;;4140759;28;20407;-55
2023/08/30 08:11:43;;;;;;;14.32;9.50;;;19.70;75.00;;;;;;4172104;28;20064;-53
2023/08/30 08:14:25;;;;;;;12.60;9.25;;;19.70;75.00;;;;;;4153301;28;20182;-53
2023/08/30 08:17:11;;;;;;;10.13;7.65;;;19.70;74.80;;;;;;4143826;28;20049;-54
2023/08/30 08:19:54;;;;;;;12.27;8.75;;;19.70;74.80;;;;;;4141806;28;20581;-54
2023/08/30 08:22:39;;;;;;;14.77;9.50;;;19.60;74.70;;;;;;4170810;28;20055;-45
2023/08/30 08:25:22;;;;;;;15.90;9.98;;;19.60;74.70;;;;;;4118124;28;20166;-45
2023/08/30 08:28:05;;;;;;;18.35;8.60;;;19.60;74.70;;;;;;4164092;28;20055;-45
2023/08/30 08:30:51;;;;;;;11.80;8.35;;;19.70;74.80;;;;;;4175937;28;20052;-45
2023/08/30 08:33:41;;;;;;;11.23;8.85;;;19.70;74.80;;;;;;4164421;28;20067;-45
2023/08/30 08:36:26;;;;;;;13.00;8.85;;;19.70;74.60;;;;;;4150866;28;20055;-45
2023/08/30 08:39:20;;;;;;;9.80;8.52;;;19.70;74.60;;;;;;4156802;28;20047;-51
2023/08/30 08:42:05;;;;;;;10.98;9.18;;;19.60;74.60;;;;;;4111890;28;20150;-52
2023/08/30 08:44:53;;;;;;;13.27;8.98;;;19.60;74.50;;;;;;4132621;28;20051;-55
2023/08/30 08:47:46;;;;;;;12.18;8.15;;;19.60;74.40;;;;;;4155840;28;21059;-55
2023/08/30 08:50:31;;;;;;;10.35;8.18;;;19.70;74.50;;;;;;4129682;28;20182;-49
2023/08/30 08:53:19;;;;;;;10.93;8.80;;;19.60;74.50;;;;;;4077901;28;20060;-44
2023/08/30 08:56:12;;;;;;;11.90;9.40;;;19.70;74.50;;;;;;4127009;28;20117;-45
2023/08/30 08:58:58;;;;;;;9.63;7.88;;;19.60;74.50;;;;;;4107777;28;20064;-55
2023/08/30 09:01:43;;;;;;;10.48;8.40;;;19.60;74.60;;;;;;4142408;28;20060;-52
2023/08/30 09:04:27;;;;;;;12.65;9.43;;;19.60;74.70;;;;;;4104444;28;20056;-51
2023/08/30 09:07:12;;;;;;;12.77;9.57;;;19.70;74.80;;;;;;4140613;28;20056;-50
2023/08/30 09:10:05;;;;;;;12.50;9.30;;;19.70;74.80;;;;;;4099401;28;20068;-47
2023/08/30 09:12:56;;;;;;;12.68;9.10;;;19.70;74.80;;;;;;4135432;28;21368;-52
2023/08/30 09:15:45;;;;;;;11.00;8.93;;;19.70;74.80;;;;;;4116042;28;20059;-45
2023/08/30 09:18:32;;;;;;;14.95;9.15;;;19.70;74.90;;;;;;4148551;28;20083;-51
2023/08/30 09:21:26;;;;;;;13.93;9.80;;;19.70;74.90;;;;;;4115487;28;20055;-52
2023/08/30 09:24:14;;;;;;;16.63;9.48;;;19.70;75.00;;;;;;4142339;28;20447;-50
2023/08/30 09:27:05;;;;;;;11.02;9.10;;;19.70;75.00;;;;;;4150442;28;20137;-44
2023/08/30 09:29:50;;;;;;;13.18;8.95;;;19.70;75.00;;;;;;4147246;28;20403;-52
2023/08/30 09:32:39;;;;;;;10.93;9.00;;;19.80;75.00;;;;;;4143708;28;20047;-46
2023/08/30 09:35:28;;;;;;;11.77;8.63;;;19.80;75.10;;;;;;4141781;28;20529;-53
2023/08/30 09:38:27;;;;;;;;;;;19.80;75.50;;;;;;4134342;28;20467;-56
2023/08/30 09:41:14;;;;;;;11.07;8.50;;;19.80;75.50;;;;;;4150491;28;19965;-54
2023/08/30 09:44:03;;;;;;;9.68;7.78;;;19.80;75.60;;;;;;4168562;28;20063;-53
2023/08/30 09:47:53;;;;;;;12.70;8.73;;;19.90;75.40;;;;;;4089321;28;20048;-46
2023/08/30 09:50:45;;;;;;;10.75;8.70;;;19.90;75.10;;;;;;4165907;28;20063;-47
2023/08/30 09:53:34;;;;;;;11.98;7.38;;;19.90;75.20;;;;;;4157621;28;20502;-47
2023/08/30 09:56:16;;;;;;;9.45;7.93;;;19.90;75.00;;;;;;4169181;28;20143;-47
2023/08/30 09:59:04;;;;;;;8.23;7.43;;;19.90;74.90;;;;;;4166831;28;20056;-46
2023/08/30 10:01:52;;;;;;;9.35;8.07;;;20.00;74.60;;;;;;4165459;28;20052;-58
2023/08/30 10:04:39;;;;;;;9.30;7.40;;;19.90;74.20;;;;;;4178417;28;20096;-53
2023/08/30 10:07:23;;;;;;;9.48;6.65;;;20.00;74.00;;;;;;4170219;28;20048;-45
2023/08/30 10:10:13;;;;;;;9.52;7.97;;;20.00;73.90;;;;;;4176917;28;20056;-55
2023/08/30 10:13:05;;;;;;;12.18;7.05;;;20.00;73.80;;;;;;4154947;28;20597;-53
2023/08/30 10:15:58;;;;;;;10.65;7.43;;;20.00;73.70;;;;;;4166150;28;20514;-44
2023/08/30 10:18:40;;;;;;;9.43;7.53;;;20.00;73.60;;;;;;4172827;28;20059;-44
2023/08/30 10:21:31;;;;;;;9.85;8.18;;;20.00;73.80;;;;;;4169879;28;20051;-56
2023/08/30 10:24:20;;;;;;;9.57;7.30;;;20.00;73.90;;;;;;4161681;28;20126;-44
2023/08/30 10:27:21;;;;;;;10.20;7.60;;;20.00;74.00;;;;;;4160730;28;20559;-52
2023/08/30 10:33:18;;;;;;;7.30;6.53;;;19.90;74.30;;;;;;4118621;28;20186;-53
2023/08/30 10:36:08;;;;;;;8.30;7.07;;;19.90;74.60;;;;;;4133162;28;20392;-55
2023/08/30 10:38:54;;;;;;;11.88;7.25;;;19.90;74.70;;;;;;4138082;28;20071;-46
2023/08/30 10:41:40;;;;;;;8.23;7.40;;;19.90;75.00;;;;;;4143924;28;20103;-56
2023/08/30 10:44:23;;;;;;;8.38;7.43;;;19.90;75.10;;;;;;4152989;28;20051;-46
2023/08/30 10:47:19;;;;;;;7.28;6.45;;;19.90;75.20;;;;;;4166449;28;20543;-56
2023/08/30 10:50:11;;;;;;;8.60;7.35;;;20.00;75.30;;;;;;4145170;28;20051;-44
2023/08/30 10:53:36;;;;;;;11.45;7.40;;;20.00;75.40;;;;;;4142671;28;20585;-43
2023/08/30 10:56:38;;;;;;;8.48;6.70;;;20.00;75.30;;;;;;4133916;28;20510;-45
2023/08/30 10:59:29;;;;;;;6.55;5.95;;;20.00;75.30;;;;;;4134528;28;20490;-54
2023/08/30 11:02:17;;;;;;;5.32;4.82;;;20.10;75.10;;;;;;4139841;28;20396;-44
2023/08/30 11:05:14;;;;;;;4.55;4.15;;;20.10;75.10;;;;;;4166404;28;20139;-44
2023/08/30 11:08:20;;;;;;;4.05;3.75;;;20.10;75.10;;;;;;4152843;28;20071;-44
2023/08/30 11:11:14;;;;;;;3.75;3.45;;;20.10;75.10;;;;;;4171861;28;20051;-53
2023/08/30 11:14:06;;;;;;;3.65;3.35;;;20.10;75.00;;;;;;4167892;28;20054;-56
2023/08/30 11:16:51;;;;;;;4.28;3.70;;;20.20;74.90;;;;;;4170616;28;20052;-55
2023/08/30 11:19:33;;;;;;;4.80;4.30;;;20.20;74.90;;;;;;4179111;28;20105;-45
2023/08/30 11:22:16;;;;;;;6.32;5.75;;;20.20;74.80;;;;;;4148968;28;20149;-52
2023/08/30 11:25:05;;;;;;;7.10;6.07;;;20.20;74.60;;;;;;4138953;28;20071;-44
2023/08/30 11:27:49;;;;;;;8.27;6.40;;;20.20;74.80;;;;;;4138467;28;20131;-46
2023/08/30 11:30:36;;;;;;;6.80;5.60;;;20.20;75.10;;;;;;4106663;28;20412;-55
2023/08/30 11:33:20;;;;;;;7.72;6.05;;;20.20;75.30;;;;;;4168370;28;20419;-45
2023/08/30 11:36:09;;;;;;;5.90;4.97;;;20.10;75.30;;;;;;4170995;28;20083;-44
2023/08/30 11:38:54;;;;;;;4.40;4.00;;;20.20;75.60;;;;;;4156526;28;20059;-52
2023/08/30 11:41:40;;;;;;;5.03;4.22;;;20.20;75.60;;;;;;4175977;28;20108;-46
2023/08/30 11:44:33;;;;;;;5.05;4.63;;;20.20;75.90;;;;;;4168138;28;20161;-45
2023/08/30 11:47:24;;;;;;;4.78;4.38;;;20.20;76.00;;;;;;4150127;28;20056;-48
2023/08/30 11:50:09;;;;;;;6.22;4.63;;;20.20;76.10;;;;;;4185503;28;20060;-47
2023/08/30 11:52:53;;;;;;;5.10;4.70;;;20.20;76.20;;;;;;4157197;28;20052;-43
2023/08/30 11:55:40;;;;;;;6.10;5.00;;;20.20;76.50;;;;;;4154907;28;20478;-46
2023/08/30 11:58:23;;;;;;;5.20;4.60;;;20.30;76.60;;;;;;4133114;28;20055;-52
2023/08/30 12:01:05;;;;;;;6.07;5.57;;;20.30;76.80;;;;;;4163448;28;20099;-46
2023/08/30 12:03:50;;;;;;;7.65;6.70;;;20.30;76.80;;;;;;4159785;28;20067;-45
2023/08/30 12:06:33;;;;;;;7.53;6.20;;;20.40;76.90;;;;;;4181619;28;20055;-52
2023/08/30 12:09:28;;;;;;;10.05;6.78;;;20.30;76.90;;;;;;4162533;28;20079;-43
2023/08/30 12:12:15;;;;;;;;;;;20.40;76.70;;;;;;4149517;28;20073;-51
2023/08/30 12:15:19;;;;;;;6.95;6.15;;;20.30;76.80;;;;;;4165573;28;19975;-44
2023/08/30 12:18:10;;;;;;;7.70;6.63;;;20.40;76.90;;;;;;4109750;28;20123;-44
2023/08/30 12:21:02;;;;;;;9.60;7.70;;;20.30;76.90;;;;;;4154550;28;20440;-43
2023/08/30 12:23:47;;;;;;;8.45;7.65;;;20.30;77.20;;;;;;4178894;28;20055;-55
2023/08/30 12:26:33;;;;;;;9.68;8.20;;;20.30;77.60;;;;;;4174376;28;20055;-54
2023/08/30 12:29:21;;;;;;;10.77;8.32;;;20.30;78.00;;;;;;4167069;28;20238;-52
2023/08/30 12:32:13;;;;;;;9.35;7.82;;;20.30;78.20;;;;;;4162743;28;20051;-52
2023/08/30 12:34:59;;;;;;;8.18;7.28;;;20.20;78.60;;;;;;4171017;28;20243;-55
2023/08/30 12:38:01;;;;;;;7.75;6.93;;;20.20;78.70;;;;;;4150083;28;20055;-50
2023/08/30 12:40:46;;;;;;;;;;;20.20;79.00;;;;;;4118208;28;20215;-54
2023/08/30 12:43:36;;;;;;;7.10;6.50;;;20.20;79.00;;;;;;4113717;28;19953;-45
2023/08/30 12:46:18;;;;;;;6.72;6.13;;;20.20;79.20;;;;;;4171973;28;20055;-54
2023/08/30 12:49:03;;;;;;;7.22;6.53;;;20.20;79.60;;;;;;4165072;28;20051;-46
2023/08/30 12:51:57;;;;;;;6.85;6.25;;;20.10;79.80;;;;;;4161379;28;20408;-56
2023/08/30 12:54:52;;;;;;;7.10;6.28;;;20.10;80.00;;;;;;4121873;28;20115;-45
2023/08/30 12:57:36;;;;;;;7.70;6.97;;;20.10;80.30;;;;;;4122415;28;20107;-45
2023/08/30 13:00:23;;;;;;;7.97;7.18;;;20.10;80.40;;;;;;4170524;28;20069;-46
2023/08/30 13:03:07;;;;;;;7.05;6.43;;;20.10;80.60;;;;;;4152343;28;20056;-45
2023/08/30 13:05:50;;;;;;;8.35;6.85;;;20.00;80.80;;;;;;4133629;28;20103;-47
2023/08/30 13:08:38;;;;;;;8.48;7.07;;;20.00;80.90;;;;;;4140060;28;20067;-55
2023/08/30 13:11:32;;;;;;;7.93;6.97;;;20.00;80.90;;;;;;4111897;28;20174;-46
2023/08/30 13:14:26;;;;;;;8.15;6.65;;;20.00;80.90;;;;;;4139821;28;20416;-47
2023/08/30 13:17:11;;;;;;;7.15;6.55;;;20.00;80.90;;;;;;4140769;28;20052;-44
2023/08/30 13:19:56;;;;;;;7.13;6.53;;;20.00;81.00;;;;;;4112288;28;20095;-43
2023/08/30 13:22:39;;;;;;;7.38;6.68;;;20.00;81.10;;;;;;4105684;28;20127;-45
2023/08/30 13:25:32;;;;;;;6.97;6.38;;;20.00;81.40;;;;;;4125128;28;20055;-54
2023/08/30 13:28:31;;;;;;;7.35;6.65;;;20.00;81.50;;;;;;4135022;28;20437;-46
2023/08/30 13:31:14;;;;;;;7.50;6.65;;;19.90;81.50;;;;;;4162394;28;20063;-44
2023/08/30 13:34:19;;;;;;;6.88;6.22;;;20.00;81.40;;;;;;4138646;28;20100;-54
2023/08/30 13:37:26;;;;;;;7.45;6.72;;;19.90;81.40;;;;;;4135829;28;20068;-45
2023/08/30 13:40:22;;;;;;;7.35;6.65;;;19.90;81.60;;;;;;4106976;28;20064;-45
2023/08/30 13:43:08;;;;;;;7.32;6.63;;;19.90;81.80;;;;;;4162768;28;20522;-45
2023/08/30 13:46:11;;;;;;;7.95;7.22;;;19.90;81.80;;;;;;4143023;28;20059;-46
2023/08/30 13:48:58;;;;;;;7.45;6.22;;;19.90;82.10;;;;;;4120174;28;20048;-47
2023/08/30 13:51:41;;;;;;;7.68;6.82;;;19.90;82.10;;;;;;4114663;28;20548;-47
2023/08/30 13:54:50;;;;;;;9.13;7.10;;;19.90;82.10;;;;;;4159185;28;20179;-55
2023/08/30 13:58:09;;;;;;;7.40;6.70;;;19.90;82.40;;;;;;4086830;28;20132;-46
2023/08/30 14:01:18;;;;;;;7.60;6.55;;;19.90;82.40;;;;;;4131356;28;20060;-51
2023/08/30 14:04:05;;;;;;;7.80;6.80;;;19.90;82.50;;;;;;4160153;28;20051;-44
2023/08/30 14:06:55;;;;;;;5.97;5.38;;;19.90;82.40;;;;;;4165489;28;20075;-43
2023/08/30 14:10:04;;;;;;;5.15;4.65;;;19.80;82.50;;;;;;4146949;28;20109;-43
2023/08/30 14:12:57;;;;;;;4.90;4.55;;;19.80;82.50;;;;;;4172209;28;20744;-55
2023/08/30 14:15:55;;;;;;;4.70;4.30;;;19.80;82.50;;;;;;4167868;28;20077;-55
2023/08/30 14:18:45;;;;;;;3.85;3.63;;;19.80;82.60;;;;;;4101468;28;20060;-55
2023/08/30 14:21:36;;;;;;;3.03;2.75;;;19.80;82.50;;;;;;4103187;28;20106;-46
2023/08/30 14:24:35;;;;;;;2.15;1.75;;;19.80;82.40;;;;;;4158320;28;20051;-46
2023/08/30 14:27:23;;;;;;;1.42;1.33;;;19.80;82.40;;;;;;4117540;28;20048;-53
2023/08/30 14:30:07;;;;;;;3.92;1.25;;;19.80;82.20;;;;;;4147559;28;20186;-48
2023/08/30 14:33:00;;;;;;;3.08;1.60;;;19.70;81.90;;;;;;4126812;28;20060;-55